createdAt,value
2022-12-06T00:01:56.941Z,100287.78
2022-12-06T00:06:58.611Z,100279.72
2022-12-06T00:12:00.157Z,100274.81
2022-12-06T00:17:01.763Z,100291.78
2022-12-06T00:22:03.423Z,100298.38
2022-12-06T00:27:05.019Z,100310.81
2022-12-06T00:32:06.651Z,100315.69
2022-12-06T00:37:08.246Z,100309.63
2022-12-06T00:42:09.790Z,100315.03
2022-12-06T00:47:11.385Z,100318.47
2022-12-06T00:52:13.005Z,100300.13
2022-12-06T00:57:14.671Z,100307.47
2022-12-06T01:02:16.230Z,100286.97
2022-12-06T01:07:17.862Z,100268.09
2022-12-06T01:12:19.409Z,100252.19
2022-12-06T01:17:20.985Z,100247.00
2022-12-06T01:22:22.585Z,100241.47
2022-12-06T01:27:24.306Z,100232.44
2022-12-06T01:32:25.888Z,100216.66
2022-12-06T01:37:27.475Z,100202.22
2022-12-06T01:42:29.054Z,100186.13
2022-12-06T01:47:37.596Z,100186.03
2022-12-06T01:52:59.739Z,100198.69
2022-12-06T01:58:07.879Z,100197.72
2022-12-06T02:03:17.872Z,100198.69
2022-12-06T02:08:21.015Z,100188.53
2022-12-06T02:13:23.592Z,100199.06
2022-12-06T02:18:33.034Z,100184.13
2022-12-06T02:23:43.696Z,100183.34
2022-12-06T02:28:50.986Z,100176.75
2022-12-06T02:33:59.545Z,100166.88
2022-12-06T02:39:07.961Z,100160.38
2022-12-06T02:44:24.212Z,100155.94
2022-12-06T02:49:28.774Z,100145.09
2022-12-06T02:54:31.653Z,100153.19
2022-12-06T02:59:33.662Z,100147.53
2022-12-06T03:05:20.265Z,100160.56
2022-12-06T03:10:47.048Z,100158.66
2022-12-06T03:16:00.153Z,100156.06
2022-12-06T03:21:13.953Z,100156.06
2022-12-06T03:26:19.239Z,100143.69
2022-12-06T03:31:22.965Z,100145.44
2022-12-06T03:36:27.067Z,100146.38
2022-12-06T03:41:38.232Z,100137.00
2022-12-06T03:46:47.492Z,100126.84
2022-12-06T03:51:49.465Z,100132.41
2022-12-06T03:56:51.022Z,100144.66
2022-12-06T04:01:52.632Z,100138.53
2022-12-06T04:06:54.247Z,100134.50
2022-12-06T04:11:55.792Z,100134.44
2022-12-06T04:17:35.933Z,100122.16
2022-12-06T04:22:56.304Z,100128.72
2022-12-06T04:28:16.296Z,100124.47
2022-12-06T04:33:36.270Z,100124.88
2022-12-06T04:38:43.497Z,100114.91
2022-12-06T04:43:45.081Z,100112.53
2022-12-06T04:48:46.647Z,100103.38
2022-12-06T04:53:48.385Z,100103.75
2022-12-06T04:58:49.970Z,100104.41
2022-12-06T05:03:51.746Z,100091.81
2022-12-06T05:08:53.388Z,100090.47
2022-12-06T05:13:54.984Z,100094.84
2022-12-06T05:18:56.652Z,100080.13
2022-12-06T05:23:58.601Z,100081.16
2022-12-06T05:29:00.529Z,100084.81
2022-12-06T05:34:02.114Z,100084.09
2022-12-06T05:39:04.266Z,100072.81
2022-12-06T05:44:05.886Z,100081.22
2022-12-06T05:49:07.464Z,100087.13
2022-12-06T05:54:09.088Z,100081.28
2022-12-06T05:59:10.872Z,100071.94
2022-12-06T06:04:12.426Z,100076.75
2022-12-06T06:09:13.988Z,100088.50
2022-12-06T06:14:15.555Z,100078.94
2022-12-06T06:19:17.246Z,100085.31
2022-12-06T06:24:18.859Z,100081.41
2022-12-06T06:29:20.441Z,100087.47
2022-12-06T06:34:22.057Z,100081.09
2022-12-06T06:39:23.638Z,100104.44
2022-12-06T06:44:25.269Z,100098.13
2022-12-06T06:49:26.820Z,100091.63
2022-12-06T06:54:28.406Z,100097.69
2022-12-06T06:59:29.980Z,100090.03
2022-12-06T07:04:31.572Z,100087.47
2022-12-06T07:09:33.681Z,100085.28
2022-12-06T07:14:35.286Z,100085.88
2022-12-06T07:19:36.892Z,100082.34
2022-12-06T07:24:42.116Z,100080.63
2022-12-06T07:29:45.231Z,100078.91
2022-12-06T07:34:46.805Z,100086.00
2022-12-06T07:39:48.351Z,100081.66
2022-12-06T07:45:03.060Z,100087.53
2022-12-06T07:50:06.625Z,100080.09
2022-12-06T07:55:10.019Z,100075.09
2022-12-06T08:00:14.480Z,100075.59
2022-12-06T08:05:16.051Z,100070.13
2022-12-06T08:10:17.721Z,100073.31
2022-12-06T08:15:19.260Z,100073.13
2022-12-06T08:20:20.832Z,100063.75
2022-12-06T08:25:22.442Z,100066.97
2022-12-06T08:30:23.995Z,100069.47
2022-12-06T08:35:25.572Z,100074.72
2022-12-06T08:40:27.127Z,100066.28
2022-12-06T08:45:28.685Z,100078.25
2022-12-06T08:50:30.303Z,100072.03
2022-12-06T08:55:31.899Z,100064.81
2022-12-06T09:00:33.823Z,100057.19
2022-12-06T09:05:35.701Z,100042.31
2022-12-06T09:10:37.517Z,100046.66
2022-12-06T09:15:39.240Z,100044.63
2022-12-06T09:20:42.429Z,100047.38
2022-12-06T09:25:43.995Z,100051.88
2022-12-06T09:30:45.615Z,100053.22
2022-12-06T09:35:47.171Z,100049.16
2022-12-06T09:41:16.553Z,100045.03
2022-12-06T09:46:20.820Z,100051.84
2022-12-06T09:51:53.154Z,100047.16
2022-12-06T09:56:54.662Z,100034.97
2022-12-06T10:02:05.650Z,100040.13
2022-12-06T10:07:39.894Z,100025.09
2022-12-06T10:13:07.218Z,100014.78
2022-12-06T10:18:36.112Z,100005.19
2022-12-06T10:24:01.470Z,99996.56
2022-12-06T10:29:21.991Z,99988.38
2022-12-06T10:34:49.037Z,99990.63
2022-12-06T10:40:14.445Z,99984.13
2022-12-06T10:45:51.603Z,99985.63
2022-12-06T10:51:02.687Z,99979.75
2022-12-06T10:56:15.339Z,99976.16
2022-12-06T11:01:26.189Z,99970.09
2022-12-06T11:06:34.398Z,99951.81
2022-12-06T11:11:39.135Z,99950.75
2022-12-06T11:16:45.225Z,99954.13
2022-12-06T11:21:59.057Z,99935.59
2022-12-06T11:27:16.797Z,99943.38
2022-12-06T11:32:19.324Z,99939.75
2022-12-06T11:37:27.294Z,99938.47
2022-12-06T11:42:28.883Z,99941.41
2022-12-06T11:47:30.614Z,99931.34
2022-12-06T11:52:55.790Z,99925.47
2022-12-06T11:58:06.539Z,99910.56
2022-12-06T12:03:28.344Z,99912.47
2022-12-06T12:08:32.820Z,99909.84
2022-12-06T12:13:44.340Z,99913.91
2022-12-06T12:19:20.287Z,99913.88
2022-12-06T12:30:28.642Z,99919.41
2022-12-06T12:35:30.241Z,99921.69
2022-12-06T12:40:37.894Z,99896.00
2022-12-06T12:45:41.292Z,99903.69
2022-12-06T12:50:53.563Z,99896.06
2022-12-06T12:56:07.416Z,99884.38
2022-12-06T13:01:24.258Z,99896.28
2022-12-06T13:06:57.971Z,99898.09
2022-12-06T13:12:05.237Z,99885.78
2022-12-06T13:17:08.973Z,99889.75
2022-12-06T13:22:20.281Z,99891.25
2022-12-06T13:27:23.898Z,99888.03
2022-12-06T13:32:50.847Z,99892.88
2022-12-06T13:38:24.282Z,99888.69
2022-12-06T13:43:27.846Z,99902.72
2022-12-06T13:48:33.383Z,99905.59
2022-12-06T13:54:04.239Z,99908.38
2022-12-06T13:59:11.917Z,99912.59
2022-12-06T14:09:47.698Z,99907.78
2022-12-06T14:14:57.740Z,99907.94
2022-12-06T14:20:01.458Z,99912.09
2022-12-06T14:25:07.556Z,99906.94
2022-12-06T14:30:26.248Z,99892.69
2022-12-06T14:35:35.294Z,99888.38
2022-12-06T14:41:01.947Z,99892.50
2022-12-06T14:46:07.733Z,99894.88
2022-12-06T14:51:26.079Z,99900.72
2022-12-06T14:56:33.587Z,99891.78
2022-12-06T15:01:47.950Z,99885.25
2022-12-06T15:06:56.657Z,99881.09
2022-12-06T15:12:39.480Z,99883.28
2022-12-06T15:17:42.462Z,99890.56
2022-12-06T15:22:46.372Z,99884.72
2022-12-06T15:27:47.952Z,99877.44
2022-12-06T15:32:49.558Z,99874.66
2022-12-06T15:37:51.359Z,99870.22
2022-12-06T15:42:56.577Z,99874.41
2022-12-06T15:48:01.331Z,99874.91
2022-12-06T15:53:02.914Z,99868.50
2022-12-06T15:58:04.508Z,99874.66
2022-12-06T16:03:06.251Z,99863.97
2022-12-06T16:08:08.321Z,99858.06
2022-12-06T16:13:24.479Z,99854.91
2022-12-06T16:18:26.245Z,99859.88
2022-12-06T16:29:14.655Z,99866.63
2022-12-06T16:34:16.246Z,99858.78
2022-12-06T16:39:17.821Z,99858.00
2022-12-06T16:44:20.039Z,99860.44
2022-12-06T16:54:47.743Z,99857.22
2022-12-06T16:59:49.628Z,99856.97
2022-12-06T17:04:51.231Z,99855.56
2022-12-06T17:09:53.303Z,99854.94
2022-12-06T17:14:54.838Z,99854.16
2022-12-06T17:19:56.481Z,99857.63
2022-12-06T17:24:58.191Z,99852.78
2022-12-06T17:30:00.101Z,99861.84
2022-12-06T17:35:02.123Z,99857.63
2022-12-06T17:40:04.503Z,99856.84
2022-12-06T17:45:06.764Z,99863.97
2022-12-06T17:50:08.991Z,99862.44
2022-12-06T17:55:13.561Z,99855.91
2022-12-06T18:00:15.731Z,99858.97
2022-12-06T18:05:17.444Z,99863.03
2022-12-06T18:10:19.192Z,99857.88
2022-12-06T18:15:38.679Z,99849.47
2022-12-06T18:20:41.189Z,99838.97
2022-12-06T18:25:42.975Z,99845.47
2022-12-06T18:30:44.524Z,99855.13
2022-12-06T18:35:46.077Z,99848.97
2022-12-06T18:40:47.672Z,99849.19
2022-12-06T18:45:49.376Z,99853.38
2022-12-06T18:50:51.034Z,99844.53
2022-12-06T18:55:52.636Z,99844.56
2022-12-06T19:00:54.246Z,99847.03
2022-12-06T19:06:02.957Z,99840.66
2022-12-06T19:11:17.595Z,99846.66
2022-12-06T19:16:21.339Z,99849.00
2022-12-06T19:21:23.873Z,99850.94
2022-12-06T19:26:26.907Z,99851.13
2022-12-06T19:31:28.522Z,99849.88
2022-12-06T19:36:31.617Z,99838.06
2022-12-06T19:41:53.693Z,99828.94
2022-12-06T19:46:55.617Z,99817.81
2022-12-06T19:51:57.323Z,99831.69
2022-12-06T19:57:00.807Z,99827.72
2022-12-06T20:02:03.804Z,99824.41
2022-12-06T20:07:06.698Z,99823.19
2022-12-06T20:12:08.388Z,99820.66
2022-12-06T20:17:14.363Z,99816.00
2022-12-06T20:22:17.866Z,99812.47
2022-12-06T20:27:39.490Z,99809.34
2022-12-06T20:32:41.106Z,99813.81
2022-12-06T20:37:42.733Z,99812.00
2022-12-06T20:42:45.856Z,99809.66
2022-12-06T20:47:51.555Z,99808.63
2022-12-06T20:52:53.110Z,99802.78
2022-12-06T20:57:54.650Z,99804.41
2022-12-06T21:02:56.679Z,99791.47
2022-12-06T21:07:58.380Z,99801.94
2022-12-06T21:13:05.652Z,99800.69
2022-12-06T21:18:07.725Z,99799.13
2022-12-06T21:23:09.348Z,99800.28
2022-12-06T21:28:10.913Z,99801.13
2022-12-06T21:33:12.487Z,99807.44
2022-12-06T21:38:14.938Z,99803.47
2022-12-06T21:43:16.495Z,99806.06
2022-12-06T21:48:18.057Z,99814.81
2022-12-06T21:53:19.609Z,99802.66
2022-12-06T21:58:21.174Z,99801.81
2022-12-06T22:03:23.536Z,99790.19
2022-12-06T22:08:25.258Z,99789.31
2022-12-06T22:13:26.888Z,99794.91
2022-12-06T22:18:29.278Z,99790.31
2022-12-06T22:23:31.627Z,99795.53
2022-12-06T22:28:33.805Z,99789.50
2022-12-06T22:33:35.456Z,99791.06
2022-12-06T22:38:37.048Z,99787.47
2022-12-06T22:43:38.713Z,99781.09
2022-12-06T22:48:41.454Z,99778.31
2022-12-06T22:53:45.431Z,99779.53
2022-12-06T22:58:47.241Z,99767.41
2022-12-06T23:03:50.583Z,99766.25
2022-12-06T23:08:52.842Z,99768.84
2022-12-06T23:13:55.751Z,99764.72
2022-12-06T23:18:59.702Z,99759.03
2022-12-06T23:24:04.771Z,99750.84
2022-12-06T23:29:06.649Z,99740.44
2022-12-06T23:34:25.733Z,99736.63
2022-12-06T23:39:27.303Z,99738.69
2022-12-06T23:44:28.836Z,99740.44
2022-12-06T23:49:30.779Z,99739.91
2022-12-06T23:54:32.344Z,99744.91
2022-12-06T23:59:33.947Z,99741.50
